sensor_id;sensor_type;location;lat;lon;timestamp;P1;durP1;ratioP1;P2;durP2;ratioP2
8654;SDS011;13500;52.514;13.462;2023-04-24T00:00:49;4.50;;;4.10;;
8654;SDS011;13500;52.514;13.462;2023-04-24T00:03:20;6.40;;;4.13;;
8654;SDS011;13500;52.514;13.462;2023-04-24T00:05:48;5.13;;;4.33;;
8654;SDS011;13500;52.514;13.462;2023-04-24T00:08:17;4.00;;;3.70;;
8654;SDS011;13500;52.514;13.462;2023-04-24T00:10:45;5.13;;;4.33;;
8654;SDS011;13500;52.514;13.462;2023-04-24T00:13:13;5.47;;;4.27;;
8654;SDS011;13500;52.514;13.462;2023-04-24T00:15:41;4.67;;;4.27;;
8654;SDS011;13500;52.514;13.462;2023-04-24T00:18:09;4.67;;;4.20;;
8654;SDS011;13500;52.514;13.462;2023-04-24T00:20:38;4.77;;;4.33;;
8654;SDS011;13500;52.514;13.462;2023-04-24T00:23:06;5.53;;;4.30;;
8654;SDS011;13500;52.514;13.462;2023-04-24T00:25:34;4.70;;;4.30;;
8654;SDS011;13500;52.514;13.462;2023-04-24T00:28:01;4.87;;;4.30;;
8654;SDS011;13500;52.514;13.462;2023-04-24T00:30:29;4.93;;;4.53;;
8654;SDS011;13500;52.514;13.462;2023-04-24T00:32:57;4.80;;;4.40;;
8654;SDS011;13500;52.514;13.462;2023-04-24T00:35:25;4.97;;;4.57;;
8654;SDS011;13500;52.514;13.462;2023-04-24T00:37:55;4.43;;;4.00;;
8654;SDS011;13500;52.514;13.462;2023-04-24T00:40:22;7.53;;;4.80;;
8654;SDS011;13500;52.514;13.462;2023-04-24T00:42:50;5.67;;;4.63;;
8654;SDS011;13500;52.514;13.462;2023-04-24T00:45:18;4.43;;;4.03;;
8654;SDS011;13500;52.514;13.462;2023-04-24T00:47:47;4.93;;;4.23;;
8654;SDS011;13500;52.514;13.462;2023-04-24T00:50:16;4.80;;;4.33;;
8654;SDS011;13500;52.514;13.462;2023-04-24T00:52:44;5.03;;;4.60;;
8654;SDS011;13500;52.514;13.462;2023-04-24T00:55:13;5.60;;;5.10;;
8654;SDS011;13500;52.514;13.462;2023-04-24T00:57:42;4.40;;;4.10;;
8654;SDS011;13500;52.514;13.462;2023-04-24T01:00:11;5.13;;;4.37;;
8654;SDS011;13500;52.514;13.462;2023-04-24T01:02:41;4.87;;;4.47;;
8654;SDS011;13500;52.514;13.462;2023-04-24T01:05:12;4.67;;;4.10;;
8654;SDS011;13500;52.514;13.462;2023-04-24T01:07:43;4.97;;;4.40;;
8654;SDS011;13500;52.514;13.462;2023-04-24T01:10:14;4.67;;;4.30;;
8654;SDS011;13500;52.514;13.462;2023-04-24T01:12:44;5.13;;;4.33;;
8654;SDS011;13500;52.514;13.462;2023-04-24T01:15:12;4.80;;;4.40;;
8654;SDS011;13500;52.514;13.462;2023-04-24T01:17:41;5.60;;;4.53;;
8654;SDS011;13500;52.514;13.462;2023-04-24T01:20:09;5.27;;;4.80;;
8654;SDS011;13500;52.514;13.462;2023-04-24T01:22:39;6.30;;;5.70;;
8654;SDS011;13500;52.514;13.462;2023-04-24T01:25:08;5.60;;;5.10;;
8654;SDS011;13500;52.514;13.462;2023-04-24T01:27:36;4.97;;;4.50;;
8654;SDS011;13500;52.514;13.462;2023-04-24T01:30:04;5.43;;;4.87;;
8654;SDS011;13500;52.514;13.462;2023-04-24T01:32:33;5.17;;;4.67;;
8654;SDS011;13500;52.514;13.462;2023-04-24T01:35:02;5.00;;;4.60;;
8654;SDS011;13500;52.514;13.462;2023-04-24T01:37:30;5.03;;;4.53;;
8654;SDS011;13500;52.514;13.462;2023-04-24T01:40:00;5.07;;;4.60;;
8654;SDS011;13500;52.514;13.462;2023-04-24T01:42:30;5.20;;;4.73;;
8654;SDS011;13500;52.514;13.462;2023-04-24T01:44:58;4.93;;;4.53;;
8654;SDS011;13500;52.514;13.462;2023-04-24T01:47:26;5.60;;;5.00;;
8654;SDS011;13500;52.514;13.462;2023-04-24T01:49:56;6.07;;;4.97;;
8654;SDS011;13500;52.514;13.462;2023-04-24T01:52:24;5.20;;;4.70;;
8654;SDS011;13500;52.514;13.462;2023-04-24T01:54:53;5.57;;;5.07;;
8654;SDS011;13500;52.514;13.462;2023-04-24T01:57:23;5.63;;;5.13;;
8654;SDS011;13500;52.514;13.462;2023-04-24T01:59:51;5.20;;;4.80;;
8654;SDS011;13500;52.514;13.462;2023-04-24T02:02:19;5.60;;;5.10;;
8654;SDS011;13500;52.514;13.462;2023-04-24T02:04:50;5.40;;;4.90;;
8654;SDS011;13500;52.514;13.462;2023-04-24T02:07:18;7.33;;;5.03;;
8654;SDS011;13500;52.514;13.462;2023-04-24T02:09:46;5.67;;;5.07;;
8654;SDS011;13500;52.514;13.462;2023-04-24T02:12:14;5.97;;;5.33;;
8654;SDS011;13500;52.514;13.462;2023-04-24T02:14:46;5.43;;;4.83;;
8654;SDS011;13500;52.514;13.462;2023-04-24T02:17:14;6.03;;;5.40;;
8654;SDS011;13500;52.514;13.462;2023-04-24T02:19:42;5.93;;;5.43;;
8654;SDS011;13500;52.514;13.462;2023-04-24T02:22:10;5.60;;;5.20;;
8654;SDS011;13500;52.514;13.462;2023-04-24T02:24:38;5.60;;;5.10;;
8654;SDS011;13500;52.514;13.462;2023-04-24T02:27:06;5.67;;;5.13;;
8654;SDS011;13500;52.514;13.462;2023-04-24T02:29:34;5.77;;;5.17;;
8654;SDS011;13500;52.514;13.462;2023-04-24T02:32:03;5.77;;;5.27;;
8654;SDS011;13500;52.514;13.462;2023-04-24T02:34:32;5.87;;;5.37;;
8654;SDS011;13500;52.514;13.462;2023-04-24T02:37:00;6.13;;;5.57;;
8654;SDS011;13500;52.514;13.462;2023-04-24T02:39:28;7.77;;;5.37;;
8654;SDS011;13500;52.514;13.462;2023-04-24T02:41:56;5.77;;;5.23;;
8654;SDS011;13500;52.514;13.462;2023-04-24T02:44:24;5.80;;;5.20;;
8654;SDS011;13500;52.514;13.462;2023-04-24T02:46:52;8.33;;;5.40;;
8654;SDS011;13500;52.514;13.462;2023-04-24T02:49:21;6.20;;;5.47;;
8654;SDS011;13500;52.514;13.462;2023-04-24T02:51:49;6.47;;;5.87;;
8654;SDS011;13500;52.514;13.462;2023-04-24T02:54:17;6.77;;;5.87;;
8654;SDS011;13500;52.514;13.462;2023-04-24T02:56:45;5.70;;;5.03;;
8654;SDS011;13500;52.514;13.462;2023-04-24T02:59:13;5.37;;;4.97;;
8654;SDS011;13500;52.514;13.462;2023-04-24T03:01:41;5.73;;;5.23;;
8654;SDS011;13500;52.514;13.462;2023-04-24T03:04:09;6.60;;;5.80;;
8654;SDS011;13500;52.514;13.462;2023-04-24T03:06:39;6.20;;;5.60;;
8654;SDS011;13500;52.514;13.462;2023-04-24T03:09:07;6.20;;;5.70;;
8654;SDS011;13500;52.514;13.462;2023-04-24T03:11:35;6.07;;;5.60;;
8654;SDS011;13500;52.514;13.462;2023-04-24T03:14:03;6.13;;;5.63;;
8654;SDS011;13500;52.514;13.462;2023-04-24T03:16:31;6.47;;;5.87;;
8654;SDS011;13500;52.514;13.462;2023-04-24T03:18:59;5.80;;;5.30;;
8654;SDS011;13500;52.514;13.462;2023-04-24T03:21:30;6.90;;;6.30;;
8654;SDS011;13500;52.514;13.462;2023-04-24T03:23:59;6.03;;;5.53;;
8654;SDS011;13500;52.514;13.462;2023-04-24T03:26:30;6.40;;;5.80;;
8654;SDS011;13500;52.514;13.462;2023-04-24T03:29:11;6.93;;;5.90;;
8654;SDS011;13500;52.514;13.462;2023-04-24T03:31:39;7.33;;;6.53;;
8654;SDS011;13500;52.514;13.462;2023-04-24T03:34:08;9.53;;;7.10;;
8654;SDS011;13500;52.514;13.462;2023-04-24T03:36:36;9.67;;;7.57;;
8654;SDS011;13500;52.514;13.462;2023-04-24T03:39:07;9.30;;;6.87;;
8654;SDS011;13500;52.514;13.462;2023-04-24T03:41:37;10.00;;;7.60;;
8654;SDS011;13500;52.514;13.462;2023-04-24T03:44:26;8.50;;;6.93;;
8654;SDS011;13500;52.514;13.462;2023-04-24T03:46:54;9.13;;;7.03;;
8654;SDS011;13500;52.514;13.462;2023-04-24T03:49:23;7.50;;;6.70;;
8654;SDS011;13500;52.514;13.462;2023-04-24T03:51:51;7.50;;;6.10;;
8654;SDS011;13500;52.514;13.462;2023-04-24T03:54:24;7.30;;;6.07;;
8654;SDS011;13500;52.514;13.462;2023-04-24T03:56:53;6.17;;;5.57;;
8654;SDS011;13500;52.514;13.462;2023-04-24T03:59:22;6.10;;;5.50;;
8654;SDS011;13500;52.514;13.462;2023-04-24T04:02:03;5.30;;;4.80;;
8654;SDS011;13500;52.514;13.462;2023-04-24T04:04:31;6.77;;;5.23;;
8654;SDS011;13500;52.514;13.462;2023-04-24T04:06:59;5.80;;;5.30;;
8654;SDS011;13500;52.514;13.462;2023-04-24T04:09:31;5.57;;;5.07;;
8654;SDS011;13500;52.514;13.462;2023-04-24T04:11:59;6.27;;;5.50;;
8654;SDS011;13500;52.514;13.462;2023-04-24T04:14:28;5.57;;;5.07;;
8654;SDS011;13500;52.514;13.462;2023-04-24T04:16:56;5.50;;;4.87;;
8654;SDS011;13500;52.514;13.462;2023-04-24T04:19:25;5.70;;;4.80;;
8654;SDS011;13500;52.514;13.462;2023-04-24T04:21:53;6.00;;;5.40;;
8654;SDS011;13500;52.514;13.462;2023-04-24T04:24:36;5.83;;;5.30;;
8654;SDS011;13500;52.514;13.462;2023-04-24T04:27:07;6.23;;;5.40;;
8654;SDS011;13500;52.514;13.462;2023-04-24T04:29:44;6.10;;;4.90;;
8654;SDS011;13500;52.514;13.462;2023-04-24T04:32:14;5.03;;;4.63;;
8654;SDS011;13500;52.514;13.462;2023-04-24T04:34:42;4.87;;;4.47;;
8654;SDS011;13500;52.514;13.462;2023-04-24T04:37:11;8.63;;;4.97;;
8654;SDS011;13500;52.514;13.462;2023-04-24T04:39:53;5.13;;;4.60;;
8654;SDS011;13500;52.514;13.462;2023-04-24T04:42:24;6.17;;;5.57;;
8654;SDS011;13500;52.514;13.462;2023-04-24T04:44:51;6.97;;;4.97;;
8654;SDS011;13500;52.514;13.462;2023-04-24T04:47:26;5.30;;;4.70;;
8654;SDS011;13500;52.514;13.462;2023-04-24T04:49:56;5.80;;;5.23;;
8654;SDS011;13500;52.514;13.462;2023-04-24T04:52:26;6.67;;;5.03;;
8654;SDS011;13500;52.514;13.462;2023-04-24T04:55:04;5.17;;;4.53;;
8654;SDS011;13500;52.514;13.462;2023-04-24T04:57:51;7.37;;;4.80;;
8654;SDS011;13500;52.514;13.462;2023-04-24T05:00:19;6.07;;;4.57;;
8654;SDS011;13500;52.514;13.462;2023-04-24T05:02:51;5.40;;;4.90;;
8654;SDS011;13500;52.514;13.462;2023-04-24T05:05:19;9.40;;;4.97;;
8654;SDS011;13500;52.514;13.462;2023-04-24T05:07:47;5.60;;;4.73;;
8654;SDS011;13500;52.514;13.462;2023-04-24T05:10:17;6.17;;;5.00;;
8654;SDS011;13500;52.514;13.462;2023-04-24T05:12:45;4.97;;;4.50;;
8654;SDS011;13500;52.514;13.462;2023-04-24T05:15:13;6.17;;;4.87;;
8654;SDS011;13500;52.514;13.462;2023-04-24T05:17:41;6.47;;;4.93;;
8654;SDS011;13500;52.514;13.462;2023-04-24T05:20:10;4.87;;;4.47;;
8654;SDS011;13500;52.514;13.462;2023-04-24T05:22:38;4.77;;;4.23;;
8654;SDS011;13500;52.514;13.462;2023-04-24T05:25:06;6.77;;;4.87;;
8654;SDS011;13500;52.514;13.462;2023-04-24T05:27:40;4.80;;;4.30;;
8654;SDS011;13500;52.514;13.462;2023-04-24T05:30:13;4.53;;;4.13;;
8654;SDS011;13500;52.514;13.462;2023-04-24T05:32:41;7.90;;;4.90;;
8654;SDS011;13500;52.514;13.462;2023-04-24T05:35:09;4.53;;;4.13;;
8654;SDS011;13500;52.514;13.462;2023-04-24T05:37:37;5.10;;;4.60;;
8654;SDS011;13500;52.514;13.462;2023-04-24T05:40:06;6.60;;;4.53;;
8654;SDS011;13500;52.514;13.462;2023-04-24T05:42:35;4.90;;;4.00;;
8654;SDS011;13500;52.514;13.462;2023-04-24T05:45:05;4.20;;;3.60;;
8654;SDS011;13500;52.514;13.462;2023-04-24T05:47:34;3.60;;;3.30;;
8654;SDS011;13500;52.514;13.462;2023-04-24T05:50:02;3.80;;;3.40;;
8654;SDS011;13500;52.514;13.462;2023-04-24T05:52:30;3.47;;;3.17;;
8654;SDS011;13500;52.514;13.462;2023-04-24T05:55:01;4.13;;;3.17;;
8654;SDS011;13500;52.514;13.462;2023-04-24T05:57:32;4.17;;;3.40;;
8654;SDS011;13500;52.514;13.462;2023-04-24T06:00:02;4.20;;;2.80;;
8654;SDS011;13500;52.514;13.462;2023-04-24T06:02:47;3.10;;;2.80;;
8654;SDS011;13500;52.514;13.462;2023-04-24T06:05:16;4.97;;;2.93;;
8654;SDS011;13500;52.514;13.462;2023-04-24T06:07:44;3.80;;;2.80;;
8654;SDS011;13500;52.514;13.462;2023-04-24T06:10:12;2.67;;;2.37;;
8654;SDS011;13500;52.514;13.462;2023-04-24T06:12:42;2.87;;;2.33;;
8654;SDS011;13500;52.514;13.462;2023-04-24T06:15:17;2.40;;;2.20;;
8654;SDS011;13500;52.514;13.462;2023-04-24T06:18:06;2.00;;;1.80;;
8654;SDS011;13500;52.514;13.462;2023-04-24T06:20:37;2.37;;;2.17;;
8654;SDS011;13500;52.514;13.462;2023-04-24T06:23:05;2.13;;;1.90;;
8654;SDS011;13500;52.514;13.462;2023-04-24T06:25:33;2.20;;;2.00;;
8654;SDS011;13500;52.514;13.462;2023-04-24T06:28:00;2.23;;;1.97;;
8654;SDS011;13500;52.514;13.462;2023-04-24T06:30:31;3.10;;;2.30;;
8654;SDS011;13500;52.514;13.462;2023-04-24T06:32:59;3.40;;;2.00;;
8654;SDS011;13500;52.514;13.462;2023-04-24T06:35:44;3.37;;;1.90;;
8654;SDS011;13500;52.514;13.462;2023-04-24T06:38:12;5.20;;;2.30;;
8654;SDS011;13500;52.514;13.462;2023-04-24T06:40:40;2.53;;;1.83;;
8654;SDS011;13500;52.514;13.462;2023-04-24T06:43:10;3.07;;;2.07;;
8654;SDS011;13500;52.514;13.462;2023-04-24T06:45:40;2.47;;;1.90;;
8654;SDS011;13500;52.514;13.462;2023-04-24T06:48:09;3.27;;;2.17;;
8654;SDS011;13500;52.514;13.462;2023-04-24T06:50:37;5.13;;;2.27;;
8654;SDS011;13500;52.514;13.462;2023-04-24T06:53:05;4.13;;;1.93;;
8654;SDS011;13500;52.514;13.462;2023-04-24T06:55:33;3.50;;;1.87;;
8654;SDS011;13500;52.514;13.462;2023-04-24T06:58:01;5.10;;;1.80;;
8654;SDS011;13500;52.514;13.462;2023-04-24T07:00:29;2.57;;;1.90;;
8654;SDS011;13500;52.514;13.462;2023-04-24T07:02:58;2.27;;;1.50;;
8654;SDS011;13500;52.514;13.462;2023-04-24T07:05:26;2.20;;;2.00;;
8654;SDS011;13500;52.514;13.462;2023-04-24T07:07:54;5.40;;;1.40;;
8654;SDS011;13500;52.514;13.462;2023-04-24T07:10:24;1.60;;;1.50;;
8654;SDS011;13500;52.514;13.462;2023-04-24T07:12:55;2.70;;;1.73;;
8654;SDS011;13500;52.514;13.462;2023-04-24T07:15:23;1.60;;;1.50;;
8654;SDS011;13500;52.514;13.462;2023-04-24T07:17:51;4.00;;;1.50;;
8654;SDS011;13500;52.514;13.462;2023-04-24T07:20:20;1.43;;;1.33;;
8654;SDS011;13500;52.514;13.462;2023-04-24T07:22:48;2.13;;;1.30;;
8654;SDS011;13500;52.514;13.462;2023-04-24T07:25:18;2.60;;;1.60;;
8654;SDS011;13500;52.514;13.462;2023-04-24T07:27:46;2.43;;;1.50;;
8654;SDS011;13500;52.514;13.462;2023-04-24T07:30:15;1.53;;;1.33;;
8654;SDS011;13500;52.514;13.462;2023-04-24T07:32:43;3.03;;;1.83;;
8654;SDS011;13500;52.514;13.462;2023-04-24T07:35:11;1.43;;;1.30;;
8654;SDS011;13500;52.514;13.462;2023-04-24T07:37:40;1.60;;;1.30;;
8654;SDS011;13500;52.514;13.462;2023-04-24T07:40:12;2.17;;;1.10;;
8654;SDS011;13500;52.514;13.462;2023-04-24T07:42:40;1.27;;;1.10;;
8654;SDS011;13500;52.514;13.462;2023-04-24T07:45:08;2.93;;;1.67;;
8654;SDS011;13500;52.514;13.462;2023-04-24T07:47:36;1.50;;;0.80;;
8654;SDS011;13500;52.514;13.462;2023-04-24T07:50:06;2.80;;;0.90;;
8654;SDS011;13500;52.514;13.462;2023-04-24T07:52:34;1.43;;;1.10;;
8654;SDS011;13500;52.514;13.462;2023-04-24T07:55:03;1.47;;;1.20;;
8654;SDS011;13500;52.514;13.462;2023-04-24T07:57:32;1.50;;;1.40;;
8654;SDS011;13500;52.514;13.462;2023-04-24T08:00:00;1.00;;;0.90;;
8654;SDS011;13500;52.514;13.462;2023-04-24T08:02:36;1.33;;;1.10;;
8654;SDS011;13500;52.514;13.462;2023-04-24T08:05:05;1.23;;;1.00;;
8654;SDS011;13500;52.514;13.462;2023-04-24T08:07:34;3.13;;;0.80;;
8654;SDS011;13500;52.514;13.462;2023-04-24T08:10:04;2.00;;;0.90;;
8654;SDS011;13500;52.514;13.462;2023-04-24T08:12:33;1.17;;;1.00;;
8654;SDS011;13500;52.514;13.462;2023-04-24T08:15:01;0.80;;;0.80;;
8654;SDS011;13500;52.514;13.462;2023-04-24T08:17:29;1.60;;;0.90;;
8654;SDS011;13500;52.514;13.462;2023-04-24T08:20:00;2.63;;;0.93;;
8654;SDS011;13500;52.514;13.462;2023-04-24T08:22:29;1.10;;;1.00;;
8654;SDS011;13500;52.514;13.462;2023-04-24T08:24:59;1.13;;;0.97;;
8654;SDS011;13500;52.514;13.462;2023-04-24T08:27:29;7.33;;;1.70;;
8654;SDS011;13500;52.514;13.462;2023-04-24T08:29:57;2.43;;;1.10;;
8654;SDS011;13500;52.514;13.462;2023-04-24T08:32:26;2.67;;;1.30;;
8654;SDS011;13500;52.514;13.462;2023-04-24T08:34:56;5.87;;;1.30;;
8654;SDS011;13500;52.514;13.462;2023-04-24T08:37:25;3.13;;;1.23;;
8654;SDS011;13500;52.514;13.462;2023-04-24T08:39:53;3.83;;;1.50;;
8654;SDS011;13500;52.514;13.462;2023-04-24T08:42:21;2.37;;;1.20;;
8654;SDS011;13500;52.514;13.462;2023-04-24T08:44:50;1.53;;;1.10;;
8654;SDS011;13500;52.514;13.462;2023-04-24T08:47:18;3.13;;;1.30;;
8654;SDS011;13500;52.514;13.462;2023-04-24T08:49:48;2.27;;;1.07;;
8654;SDS011;13500;52.514;13.462;2023-04-24T08:52:16;2.07;;;1.00;;
8654;SDS011;13500;52.514;13.462;2023-04-24T08:54:46;1.30;;;1.10;;
8654;SDS011;13500;52.514;13.462;2023-04-24T08:57:14;1.57;;;1.00;;
8654;SDS011;13500;52.514;13.462;2023-04-24T08:59:42;1.97;;;1.50;;
8654;SDS011;13500;52.514;13.462;2023-04-24T09:02:12;1.90;;;1.40;;
8654;SDS011;13500;52.514;13.462;2023-04-24T09:04:41;2.30;;;0.93;;
8654;SDS011;13500;52.514;13.462;2023-04-24T09:07:11;3.57;;;1.10;;
8654;SDS011;13500;52.514;13.462;2023-04-24T09:09:39;2.83;;;0.87;;
8654;SDS011;13500;52.514;13.462;2023-04-24T09:12:08;2.57;;;1.33;;
8654;SDS011;13500;52.514;13.462;2023-04-24T09:14:37;2.00;;;1.00;;
8654;SDS011;13500;52.514;13.462;2023-04-24T09:17:08;2.77;;;1.00;;
8654;SDS011;13500;52.514;13.462;2023-04-24T09:19:38;4.87;;;1.10;;
8654;SDS011;13500;52.514;13.462;2023-04-24T09:22:06;2.03;;;1.20;;
8654;SDS011;13500;52.514;13.462;2023-04-24T09:24:35;1.40;;;1.10;;
8654;SDS011;13500;52.514;13.462;2023-04-24T09:27:03;1.73;;;1.13;;
8654;SDS011;13500;52.514;13.462;2023-04-24T09:29:31;3.13;;;1.20;;
8654;SDS011;13500;52.514;13.462;2023-04-24T09:31:59;4.77;;;1.00;;
8654;SDS011;13500;52.514;13.462;2023-04-24T09:34:48;3.43;;;0.97;;
8654;SDS011;13500;52.514;13.462;2023-04-24T09:37:27;1.87;;;1.33;;
8654;SDS011;13500;52.514;13.462;2023-04-24T09:40:08;4.30;;;1.17;;
8654;SDS011;13500;52.514;13.462;2023-04-24T09:42:41;2.63;;;1.20;;
8654;SDS011;13500;52.514;13.462;2023-04-24T09:45:11;2.37;;;1.27;;
8654;SDS011;13500;52.514;13.462;2023-04-24T09:47:41;3.70;;;1.50;;
8654;SDS011;13500;52.514;13.462;2023-04-24T09:50:12;3.17;;;1.40;;
8654;SDS011;13500;52.514;13.462;2023-04-24T09:52:45;2.60;;;1.40;;
8654;SDS011;13500;52.514;13.462;2023-04-24T09:55:15;4.17;;;1.70;;
8654;SDS011;13500;52.514;13.462;2023-04-24T09:57:54;2.50;;;1.20;;
8654;SDS011;13500;52.514;13.462;2023-04-24T10:00:24;2.47;;;1.20;;
8654;SDS011;13500;52.514;13.462;2023-04-24T10:02:56;3.27;;;1.30;;
8654;SDS011;13500;52.514;13.462;2023-04-24T10:05:30;2.97;;;1.00;;
8654;SDS011;13500;52.514;13.462;2023-04-24T10:08:00;2.10;;;1.63;;
8654;SDS011;13500;52.514;13.462;2023-04-24T10:10:29;2.30;;;1.00;;
8654;SDS011;13500;52.514;13.462;2023-04-24T10:12:58;3.73;;;1.40;;
8654;SDS011;13500;52.514;13.462;2023-04-24T10:15:27;1.57;;;1.20;;
8654;SDS011;13500;52.514;13.462;2023-04-24T10:17:55;4.13;;;1.30;;
8654;SDS011;13500;52.514;13.462;2023-04-24T10:20:27;5.47;;;1.17;;
8654;SDS011;13500;52.514;13.462;2023-04-24T10:22:58;1.43;;;1.10;;
8654;SDS011;13500;52.514;13.462;2023-04-24T10:25:27;1.53;;;0.90;;
8654;SDS011;13500;52.514;13.462;2023-04-24T10:27:57;3.13;;;1.40;;
8654;SDS011;13500;52.514;13.462;2023-04-24T10:30:26;2.17;;;1.20;;
8654;SDS011;13500;52.514;13.462;2023-04-24T10:32:55;1.20;;;1.10;;
8654;SDS011;13500;52.514;13.462;2023-04-24T10:35:23;2.30;;;1.03;;
8654;SDS011;13500;52.514;13.462;2023-04-24T10:37:54;1.73;;;1.40;;
8654;SDS011;13500;52.514;13.462;2023-04-24T10:40:27;5.33;;;1.77;;
8654;SDS011;13500;52.514;13.462;2023-04-24T10:42:58;2.27;;;1.23;;
8654;SDS011;13500;52.514;13.462;2023-04-24T10:45:26;5.70;;;1.40;;
8654;SDS011;13500;52.514;13.462;2023-04-24T10:47:57;1.60;;;0.90;;
8654;SDS011;13500;52.514;13.462;2023-04-24T10:50:42;2.10;;;1.10;;
8654;SDS011;13500;52.514;13.462;2023-04-24T10:53:15;3.20;;;1.30;;
8654;SDS011;13500;52.514;13.462;2023-04-24T10:55:46;2.27;;;0.90;;
8654;SDS011;13500;52.514;13.462;2023-04-24T10:58:15;2.83;;;1.20;;
8654;SDS011;13500;52.514;13.462;2023-04-24T11:00:46;3.87;;;1.30;;
8654;SDS011;13500;52.514;13.462;2023-04-24T11:03:24;1.77;;;1.20;;
8654;SDS011;13500;52.514;13.462;2023-04-24T11:05:56;0.97;;;0.93;;
8654;SDS011;13500;52.514;13.462;2023-04-24T11:08:30;1.93;;;1.20;;
8654;SDS011;13500;52.514;13.462;2023-04-24T11:11:02;2.77;;;1.27;;
8654;SDS011;13500;52.514;13.462;2023-04-24T11:16:34;1.30;;;1.00;;
8654;SDS011;13500;52.514;13.462;2023-04-24T11:19:05;1.60;;;1.20;;
8654;SDS011;13500;52.514;13.462;2023-04-24T11:21:40;2.10;;;1.27;;
8654;SDS011;13500;52.514;13.462;2023-04-24T11:24:23;2.30;;;1.37;;
8654;SDS011;13500;52.514;13.462;2023-04-24T11:26:56;2.53;;;1.80;;
8654;SDS011;13500;52.514;13.462;2023-04-24T11:29:38;3.70;;;1.37;;
8654;SDS011;13500;52.514;13.462;2023-04-24T11:32:17;2.30;;;1.33;;
8654;SDS011;13500;52.514;13.462;2023-04-24T11:34:47;2.47;;;1.40;;
8654;SDS011;13500;52.514;13.462;2023-04-24T11:37:16;2.43;;;1.37;;
8654;SDS011;13500;52.514;13.462;2023-04-24T11:39:43;3.77;;;1.40;;
8654;SDS011;13500;52.514;13.462;2023-04-24T11:42:15;4.60;;;1.70;;
8654;SDS011;13500;52.514;13.462;2023-04-24T11:44:43;1.83;;;1.50;;
8654;SDS011;13500;52.514;13.462;2023-04-24T11:47:11;2.07;;;1.70;;
8654;SDS011;13500;52.514;13.462;2023-04-24T11:49:39;2.80;;;1.50;;
8654;SDS011;13500;52.514;13.462;2023-04-24T11:52:07;2.57;;;1.13;;
8654;SDS011;13500;52.514;13.462;2023-04-24T11:54:34;1.43;;;1.30;;
8654;SDS011;13500;52.514;13.462;2023-04-24T11:57:03;1.80;;;1.50;;
8654;SDS011;13500;52.514;13.462;2023-04-24T11:59:36;4.53;;;2.80;;
8654;SDS011;13500;52.514;13.462;2023-04-24T12:02:05;1.83;;;1.40;;
8654;SDS011;13500;52.514;13.462;2023-04-24T12:04:39;1.47;;;1.13;;
8654;SDS011;13500;52.514;13.462;2023-04-24T12:07:08;2.50;;;1.30;;
8654;SDS011;13500;52.514;13.462;2023-04-24T12:09:40;2.53;;;1.33;;
8654;SDS011;13500;52.514;13.462;2023-04-24T12:12:09;3.60;;;1.20;;
8654;SDS011;13500;52.514;13.462;2023-04-24T12:14:43;1.33;;;1.23;;
8654;SDS011;13500;52.514;13.462;2023-04-24T12:17:24;3.03;;;1.37;;
8654;SDS011;13500;52.514;13.462;2023-04-24T12:19:58;1.50;;;1.30;;
8654;SDS011;13500;52.514;13.462;2023-04-24T12:22:27;2.40;;;1.30;;
8654;SDS011;13500;52.514;13.462;2023-04-24T12:24:56;2.67;;;1.23;;
8654;SDS011;13500;52.514;13.462;2023-04-24T12:27:25;3.07;;;1.20;;
8654;SDS011;13500;52.514;13.462;2023-04-24T12:29:55;1.30;;;1.20;;
8654;SDS011;13500;52.514;13.462;2023-04-24T12:32:23;1.30;;;1.07;;
8654;SDS011;13500;52.514;13.462;2023-04-24T12:34:53;2.67;;;1.30;;
8654;SDS011;13500;52.514;13.462;2023-04-24T12:37:22;1.27;;;1.07;;
8654;SDS011;13500;52.514;13.462;2023-04-24T12:40:00;1.40;;;1.30;;
8654;SDS011;13500;52.514;13.462;2023-04-24T12:42:29;1.30;;;1.10;;
8654;SDS011;13500;52.514;13.462;2023-04-24T12:45:01;2.77;;;1.10;;
8654;SDS011;13500;52.514;13.462;2023-04-24T12:47:30;1.93;;;1.30;;
8654;SDS011;13500;52.514;13.462;2023-04-24T12:49:58;2.37;;;1.13;;
8654;SDS011;13500;52.514;13.462;2023-04-24T12:52:28;1.70;;;1.10;;
8654;SDS011;13500;52.514;13.462;2023-04-24T12:54:57;1.60;;;1.03;;
8654;SDS011;13500;52.514;13.462;2023-04-24T12:57:26;2.70;;;1.30;;
8654;SDS011;13500;52.514;13.462;2023-04-24T12:59:55;3.43;;;1.13;;
8654;SDS011;13500;52.514;13.462;2023-04-24T13:02:26;1.53;;;0.90;;
8654;SDS011;13500;52.514;13.462;2023-04-24T13:04:56;2.17;;;1.20;;
8654;SDS011;13500;52.514;13.462;2023-04-24T13:07:24;3.23;;;1.30;;
8654;SDS011;13500;52.514;13.462;2023-04-24T13:09:52;6.50;;;1.40;;
8654;SDS011;13500;52.514;13.462;2023-04-24T13:12:21;1.43;;;1.10;;
8654;SDS011;13500;52.514;13.462;2023-04-24T13:14:50;5.63;;;1.63;;
8654;SDS011;13500;52.514;13.462;2023-04-24T13:17:18;1.30;;;1.20;;
8654;SDS011;13500;52.514;13.462;2023-04-24T13:19:49;1.53;;;1.10;;
8654;SDS011;13500;52.514;13.462;2023-04-24T13:22:17;1.20;;;1.10;;
8654;SDS011;13500;52.514;13.462;2023-04-24T13:24:46;1.70;;;1.30;;
8654;SDS011;13500;52.514;13.462;2023-04-24T13:27:15;1.87;;;1.00;;
8654;SDS011;13500;52.514;13.462;2023-04-24T13:29:43;1.63;;;1.00;;
8654;SDS011;13500;52.514;13.462;2023-04-24T13:32:11;1.43;;;1.20;;
8654;SDS011;13500;52.514;13.462;2023-04-24T13:34:39;4.47;;;1.10;;
8654;SDS011;13500;52.514;13.462;2023-04-24T13:37:08;1.77;;;1.00;;
8654;SDS011;13500;52.514;13.462;2023-04-24T13:39:36;1.40;;;0.97;;
8654;SDS011;13500;52.514;13.462;2023-04-24T13:42:04;2.17;;;1.20;;
8654;SDS011;13500;52.514;13.462;2023-04-24T13:44:32;1.40;;;1.30;;
8654;SDS011;13500;52.514;13.462;2023-04-24T13:46:59;2.10;;;1.23;;
8654;SDS011;13500;52.514;13.462;2023-04-24T13:49:27;3.00;;;1.23;;
8654;SDS011;13500;52.514;13.462;2023-04-24T13:51:55;4.80;;;1.40;;
8654;SDS011;13500;52.514;13.462;2023-04-24T13:54:25;1.43;;;1.20;;
8654;SDS011;13500;52.514;13.462;2023-04-24T13:56:53;1.43;;;1.10;;
8654;SDS011;13500;52.514;13.462;2023-04-24T13:59:20;1.20;;;0.97;;
8654;SDS011;13500;52.514;13.462;2023-04-24T14:01:48;3.43;;;1.47;;
8654;SDS011;13500;52.514;13.462;2023-04-24T14:04:16;3.80;;;1.10;;
8654;SDS011;13500;52.514;13.462;2023-04-24T14:06:44;1.83;;;1.20;;
8654;SDS011;13500;52.514;13.462;2023-04-24T14:09:12;1.17;;;1.03;;
8654;SDS011;13500;52.514;13.462;2023-04-24T14:11:42;1.20;;;1.10;;
8654;SDS011;13500;52.514;13.462;2023-04-24T14:14:10;3.87;;;1.50;;
8654;SDS011;13500;52.514;13.462;2023-04-24T14:16:38;2.10;;;0.93;;
8654;SDS011;13500;52.514;13.462;2023-04-24T14:19:06;1.40;;;0.97;;
8654;SDS011;13500;52.514;13.462;2023-04-24T14:21:34;1.50;;;1.20;;
8654;SDS011;13500;52.514;13.462;2023-04-24T14:24:02;2.60;;;1.40;;
8654;SDS011;13500;52.514;13.462;2023-04-24T14:26:30;2.43;;;1.20;;
8654;SDS011;13500;52.514;13.462;2023-04-24T14:28:59;1.33;;;1.17;;
8654;SDS011;13500;52.514;13.462;2023-04-24T14:31:30;1.37;;;1.20;;
8654;SDS011;13500;52.514;13.462;2023-04-24T14:33:58;1.40;;;1.23;;
8654;SDS011;13500;52.514;13.462;2023-04-24T14:36:25;1.77;;;1.27;;
8654;SDS011;13500;52.514;13.462;2023-04-24T14:38:53;1.20;;;1.10;;
8654;SDS011;13500;52.514;13.462;2023-04-24T14:41:21;3.83;;;1.07;;
8654;SDS011;13500;52.514;13.462;2023-04-24T14:43:49;1.93;;;1.00;;
8654;SDS011;13500;52.514;13.462;2023-04-24T14:46:18;1.50;;;1.40;;
8654;SDS011;13500;52.514;13.462;2023-04-24T14:48:46;2.30;;;1.13;;
8654;SDS011;13500;52.514;13.462;2023-04-24T14:51:14;1.17;;;0.93;;
8654;SDS011;13500;52.514;13.462;2023-04-24T14:53:42;2.70;;;1.23;;
8654;SDS011;13500;52.514;13.462;2023-04-24T14:56:10;2.07;;;1.33;;
8654;SDS011;13500;52.514;13.462;2023-04-24T14:58:38;2.73;;;1.17;;
8654;SDS011;13500;52.514;13.462;2023-04-24T15:01:06;1.60;;;1.30;;
8654;SDS011;13500;52.514;13.462;2023-04-24T15:03:35;1.53;;;1.27;;
8654;SDS011;13500;52.514;13.462;2023-04-24T15:06:03;1.63;;;1.30;;